sensor_id;sensor_type;location;lat;lon;timestamp;P1;durP1;ratioP1;P2;durP2;ratioP2
10452;SDS011;5274;51.992;8.518;2023-09-07T00:00:20;7.30;;;6.70;;
10452;SDS011;5274;51.992;8.518;2023-09-07T00:02:46;7.72;;;7.13;;
10452;SDS011;5274;51.992;8.518;2023-09-07T00:05:12;7.45;;;6.75;;
10452;SDS011;5274;51.992;8.518;2023-09-07T00:07:39;7.70;;;6.80;;
10452;SDS011;5274;51.992;8.518;2023-09-07T00:10:05;7.47;;;6.88;;
10452;SDS011;5274;51.992;8.518;2023-09-07T00:12:31;7.30;;;6.80;;
10452;SDS011;5274;51.992;8.518;2023-09-07T00:14:57;6.70;;;6.30;;
10452;SDS011;5274;51.992;8.518;2023-09-07T00:17:23;7.55;;;6.88;;
10452;SDS011;5274;51.992;8.518;2023-09-07T00:19:49;7.38;;;6.88;;
10452;SDS011;5274;51.992;8.518;2023-09-07T00:22:16;7.90;;;7.20;;
10452;SDS011;5274;51.992;8.518;2023-09-07T00:24:42;7.00;;;6.50;;
10452;SDS011;5274;51.992;8.518;2023-09-07T00:27:08;8.20;;;7.30;;
10452;SDS011;5274;51.992;8.518;2023-09-07T00:29:36;7.97;;;7.38;;
10452;SDS011;5274;51.992;8.518;2023-09-07T00:32:02;7.30;;;6.78;;
10452;SDS011;5274;51.992;8.518;2023-09-07T00:34:28;9.50;;;6.70;;
10452;SDS011;5274;51.992;8.518;2023-09-07T00:36:54;7.82;;;7.13;;
10452;SDS011;5274;51.992;8.518;2023-09-07T00:39:20;7.45;;;6.53;;
10452;SDS011;5274;51.992;8.518;2023-09-07T00:41:46;7.60;;;7.00;;
10452;SDS011;5274;51.992;8.518;2023-09-07T00:44:12;7.70;;;7.10;;
10452;SDS011;5274;51.992;8.518;2023-09-07T00:46:38;7.00;;;6.43;;
10452;SDS011;5274;51.992;8.518;2023-09-07T00:49:04;8.07;;;7.00;;
10452;SDS011;5274;51.992;8.518;2023-09-07T00:51:31;7.47;;;6.78;;
10452;SDS011;5274;51.992;8.518;2023-09-07T00:53:57;7.93;;;7.22;;
10452;SDS011;5274;51.992;8.518;2023-09-07T00:56:24;7.50;;;6.78;;
10452;SDS011;5274;51.992;8.518;2023-09-07T00:58:52;7.60;;;6.85;;
10452;SDS011;5274;51.992;8.518;2023-09-07T01:01:19;7.03;;;6.50;;
10452;SDS011;5274;51.992;8.518;2023-09-07T01:03:44;7.20;;;6.60;;
10452;SDS011;5274;51.992;8.518;2023-09-07T01:08:43;7.53;;;6.93;;
10452;SDS011;5274;51.992;8.518;2023-09-07T01:11:17;6.93;;;6.43;;
10452;SDS011;5274;51.992;8.518;2023-09-07T01:13:45;7.32;;;6.63;;
10452;SDS011;5274;51.992;8.518;2023-09-07T01:16:12;7.20;;;6.53;;
10452;SDS011;5274;51.992;8.518;2023-09-07T01:18:41;10.38;;;6.85;;
10452;SDS011;5274;51.992;8.518;2023-09-07T01:21:07;7.30;;;6.72;;
10452;SDS011;5274;51.992;8.518;2023-09-07T01:23:37;7.43;;;6.72;;
10452;SDS011;5274;51.992;8.518;2023-09-07T01:26:05;7.35;;;6.85;;
10452;SDS011;5274;51.992;8.518;2023-09-07T01:28:31;7.30;;;6.70;;
10452;SDS011;5274;51.992;8.518;2023-09-07T01:30:57;7.10;;;6.50;;
10452;SDS011;5274;51.992;8.518;2023-09-07T01:33:23;7.70;;;7.00;;
10452;SDS011;5274;51.992;8.518;2023-09-07T01:35:49;8.18;;;6.85;;
10452;SDS011;5274;51.992;8.518;2023-09-07T01:38:15;7.53;;;7.00;;
10452;SDS011;5274;51.992;8.518;2023-09-07T01:40:41;7.45;;;6.82;;
10452;SDS011;5274;51.992;8.518;2023-09-07T01:43:07;7.60;;;7.00;;
10452;SDS011;5274;51.992;8.518;2023-09-07T01:45:33;7.28;;;6.68;;
10452;SDS011;5274;51.992;8.518;2023-09-07T01:47:59;8.35;;;7.68;;
10452;SDS011;5274;51.992;8.518;2023-09-07T01:50:25;7.57;;;7.07;;
10452;SDS011;5274;51.992;8.518;2023-09-07T01:52:51;7.28;;;6.68;;
10452;SDS011;5274;51.992;8.518;2023-09-07T01:55:17;8.05;;;7.45;;
10452;SDS011;5274;51.992;8.518;2023-09-07T01:57:43;7.75;;;7.05;;
10452;SDS011;5274;51.992;8.518;2023-09-07T02:00:10;7.90;;;7.20;;
10452;SDS011;5274;51.992;8.518;2023-09-07T02:02:36;7.18;;;6.55;;
10452;SDS011;5274;51.992;8.518;2023-09-07T02:05:02;8.10;;;7.50;;
10452;SDS011;5274;51.992;8.518;2023-09-07T02:07:28;7.22;;;6.63;;
10452;SDS011;5274;51.992;8.518;2023-09-07T02:09:54;9.63;;;7.50;;
10452;SDS011;5274;51.992;8.518;2023-09-07T02:12:20;7.18;;;6.68;;
10452;SDS011;5274;51.992;8.518;2023-09-07T02:14:46;7.95;;;7.25;;
10452;SDS011;5274;51.992;8.518;2023-09-07T02:17:12;7.40;;;6.90;;
10452;SDS011;5274;51.992;8.518;2023-09-07T02:19:42;8.32;;;7.65;;
10452;SDS011;5274;51.992;8.518;2023-09-07T02:22:08;7.68;;;7.18;;
10452;SDS011;5274;51.992;8.518;2023-09-07T02:24:34;7.90;;;7.30;;
10452;SDS011;5274;51.992;8.518;2023-09-07T02:27:00;8.20;;;7.50;;
10452;SDS011;5274;51.992;8.518;2023-09-07T02:29:26;7.35;;;6.85;;
10452;SDS011;5274;51.992;8.518;2023-09-07T02:31:52;7.78;;;6.97;;
10452;SDS011;5274;51.992;8.518;2023-09-07T02:34:18;8.52;;;6.88;;
10452;SDS011;5274;51.992;8.518;2023-09-07T02:36:44;9.05;;;7.72;;
10452;SDS011;5274;51.992;8.518;2023-09-07T02:39:10;7.38;;;6.88;;
10452;SDS011;5274;51.992;8.518;2023-09-07T02:41:36;7.40;;;6.80;;
10452;SDS011;5274;51.992;8.518;2023-09-07T02:44:03;7.38;;;6.80;;
10452;SDS011;5274;51.992;8.518;2023-09-07T02:46:29;6.97;;;6.45;;
10452;SDS011;5274;51.992;8.518;2023-09-07T02:48:58;7.88;;;7.22;;
10452;SDS011;5274;51.992;8.518;2023-09-07T02:51:24;7.32;;;6.70;;
10452;SDS011;5274;51.992;8.518;2023-09-07T02:53:50;7.72;;;7.13;;
10452;SDS011;5274;51.992;8.518;2023-09-07T02:56:16;7.10;;;6.50;;
10452;SDS011;5274;51.992;8.518;2023-09-07T02:58:42;7.70;;;7.10;;
10452;SDS011;5274;51.992;8.518;2023-09-07T03:01:10;7.65;;;6.95;;
10452;SDS011;5274;51.992;8.518;2023-09-07T03:03:36;7.47;;;6.90;;
10452;SDS011;5274;51.992;8.518;2023-09-07T03:06:12;7.90;;;7.30;;
10452;SDS011;5274;51.992;8.518;2023-09-07T03:08:39;7.22;;;6.53;;
10452;SDS011;5274;51.992;8.518;2023-09-07T03:11:05;8.13;;;6.78;;
10452;SDS011;5274;51.992;8.518;2023-09-07T03:13:31;7.80;;;7.00;;
10452;SDS011;5274;51.992;8.518;2023-09-07T03:15:58;8.10;;;7.40;;
10452;SDS011;5274;51.992;8.518;2023-09-07T03:18:24;8.10;;;7.35;;
10452;SDS011;5274;51.992;8.518;2023-09-07T03:20:50;9.55;;;7.10;;
10452;SDS011;5274;51.992;8.518;2023-09-07T03:23:16;9.23;;;7.30;;
10452;SDS011;5274;51.992;8.518;2023-09-07T03:25:42;7.78;;;7.07;;
10452;SDS011;5274;51.992;8.518;2023-09-07T03:28:09;11.13;;;7.15;;
10452;SDS011;5274;51.992;8.518;2023-09-07T03:30:34;7.80;;;7.10;;
10452;SDS011;5274;51.992;8.518;2023-09-07T03:33:00;11.57;;;10.57;;
10452;SDS011;5274;51.992;8.518;2023-09-07T03:35:28;20.33;;;19.00;;
10452;SDS011;5274;51.992;8.518;2023-09-07T03:37:54;21.48;;;20.17;;
10452;SDS011;5274;51.992;8.518;2023-09-07T03:40:20;19.75;;;18.73;;
10452;SDS011;5274;51.992;8.518;2023-09-07T03:42:46;18.83;;;17.73;;
10452;SDS011;5274;51.992;8.518;2023-09-07T03:45:12;18.70;;;17.45;;
10452;SDS011;5274;51.992;8.518;2023-09-07T03:47:38;19.13;;;18.05;;
10452;SDS011;5274;51.992;8.518;2023-09-07T03:50:04;20.85;;;19.77;;
10452;SDS011;5274;51.992;8.518;2023-09-07T03:52:30;20.00;;;18.83;;
10452;SDS011;5274;51.992;8.518;2023-09-07T03:54:57;20.67;;;19.38;;
10452;SDS011;5274;51.992;8.518;2023-09-07T03:57:23;19.90;;;18.80;;
10452;SDS011;5274;51.992;8.518;2023-09-07T03:59:49;20.45;;;19.25;;
10452;SDS011;5274;51.992;8.518;2023-09-07T04:02:15;19.20;;;18.08;;
10452;SDS011;5274;51.992;8.518;2023-09-07T04:04:48;23.92;;;22.52;;
10452;SDS011;5274;51.992;8.518;2023-09-07T04:07:14;22.42;;;21.23;;
10452;SDS011;5274;51.992;8.518;2023-09-07T04:09:40;22.27;;;21.08;;
10452;SDS011;5274;51.992;8.518;2023-09-07T04:12:06;24.20;;;22.80;;
10452;SDS011;5274;51.992;8.518;2023-09-07T04:14:32;22.05;;;20.95;;
10452;SDS011;5274;51.992;8.518;2023-09-07T04:16:58;22.80;;;21.40;;
10452;SDS011;5274;51.992;8.518;2023-09-07T04:19:24;21.77;;;20.50;;
10452;SDS011;5274;51.992;8.518;2023-09-07T04:21:50;21.75;;;20.27;;
10452;SDS011;5274;51.992;8.518;2023-09-07T04:24:16;21.77;;;20.33;;
10452;SDS011;5274;51.992;8.518;2023-09-07T04:26:42;23.13;;;21.42;;
10452;SDS011;5274;51.992;8.518;2023-09-07T04:29:08;19.95;;;18.85;;
10452;SDS011;5274;51.992;8.518;2023-09-07T04:31:35;21.60;;;20.42;;
10452;SDS011;5274;51.992;8.518;2023-09-07T04:34:01;20.58;;;19.48;;
10452;SDS011;5274;51.992;8.518;2023-09-07T04:36:28;24.08;;;22.67;;
10452;SDS011;5274;51.992;8.518;2023-09-07T04:38:54;21.30;;;20.15;;
10452;SDS011;5274;51.992;8.518;2023-09-07T04:41:20;22.15;;;20.90;;
10452;SDS011;5274;51.992;8.518;2023-09-07T04:43:46;21.75;;;20.48;;
10452;SDS011;5274;51.992;8.518;2023-09-07T04:46:12;22.00;;;20.70;;
10452;SDS011;5274;51.992;8.518;2023-09-07T04:48:38;20.30;;;18.98;;
10452;SDS011;5274;51.992;8.518;2023-09-07T04:51:06;22.33;;;20.98;;
10452;SDS011;5274;51.992;8.518;2023-09-07T04:53:33;21.05;;;19.88;;
10452;SDS011;5274;51.992;8.518;2023-09-07T04:56:00;20.15;;;18.85;;
10452;SDS011;5274;51.992;8.518;2023-09-07T04:58:26;21.67;;;20.40;;
10452;SDS011;5274;51.992;8.518;2023-09-07T05:00:52;21.90;;;20.45;;
10452;SDS011;5274;51.992;8.518;2023-09-07T05:03:18;21.58;;;20.38;;
10452;SDS011;5274;51.992;8.518;2023-09-07T05:05:44;23.02;;;21.73;;
10452;SDS011;5274;51.992;8.518;2023-09-07T05:08:10;20.92;;;19.30;;
10452;SDS011;5274;51.992;8.518;2023-09-07T05:10:37;18.67;;;17.35;;
10452;SDS011;5274;51.992;8.518;2023-09-07T05:13:03;18.08;;;16.80;;
10452;SDS011;5274;51.992;8.518;2023-09-07T05:15:29;17.52;;;16.27;;
10452;SDS011;5274;51.992;8.518;2023-09-07T05:17:55;24.40;;;22.73;;
10452;SDS011;5274;51.992;8.518;2023-09-07T05:20:21;23.55;;;21.00;;
10452;SDS011;5274;51.992;8.518;2023-09-07T05:22:47;24.17;;;22.48;;
10452;SDS011;5274;51.992;8.518;2023-09-07T05:25:13;24.02;;;22.50;;
10452;SDS011;5274;51.992;8.518;2023-09-07T05:27:39;25.42;;;23.77;;
10452;SDS011;5274;51.992;8.518;2023-09-07T05:30:06;21.73;;;18.95;;
10452;SDS011;5274;51.992;8.518;2023-09-07T05:32:32;23.77;;;21.42;;
10452;SDS011;5274;51.992;8.518;2023-09-07T05:34:58;29.25;;;18.73;;
10452;SDS011;5274;51.992;8.518;2023-09-07T05:37:24;23.63;;;22.02;;
10452;SDS011;5274;51.992;8.518;2023-09-07T05:39:50;24.65;;;23.25;;
10452;SDS011;5274;51.992;8.518;2023-09-07T05:42:16;24.35;;;22.70;;
10452;SDS011;5274;51.992;8.518;2023-09-07T05:44:42;24.23;;;22.63;;
10452;SDS011;5274;51.992;8.518;2023-09-07T05:47:07;24.00;;;22.17;;
10452;SDS011;5274;51.992;8.518;2023-09-07T05:49:33;24.20;;;21.30;;
10452;SDS011;5274;51.992;8.518;2023-09-07T05:51:59;23.30;;;21.42;;
10452;SDS011;5274;51.992;8.518;2023-09-07T05:54:25;20.90;;;19.60;;
10452;SDS011;5274;51.992;8.518;2023-09-07T05:56:51;21.92;;;19.85;;
10452;SDS011;5274;51.992;8.518;2023-09-07T05:59:17;19.65;;;18.65;;
10452;SDS011;5274;51.992;8.518;2023-09-07T06:01:44;22.38;;;20.58;;
10452;SDS011;5274;51.992;8.518;2023-09-07T06:04:10;21.38;;;19.98;;
10452;SDS011;5274;51.992;8.518;2023-09-07T06:06:36;20.15;;;18.67;;
10452;SDS011;5274;51.992;8.518;2023-09-07T06:09:02;20.92;;;19.63;;
10452;SDS011;5274;51.992;8.518;2023-09-07T06:11:28;18.70;;;17.70;;
10452;SDS011;5274;51.992;8.518;2023-09-07T06:13:56;21.13;;;19.83;;
10452;SDS011;5274;51.992;8.518;2023-09-07T06:16:22;19.92;;;18.73;;
10452;SDS011;5274;51.992;8.518;2023-09-07T06:18:48;21.73;;;19.92;;
10452;SDS011;5274;51.992;8.518;2023-09-07T06:21:14;19.40;;;18.10;;
10452;SDS011;5274;51.992;8.518;2023-09-07T06:23:40;27.65;;;26.15;;
10452;SDS011;5274;51.992;8.518;2023-09-07T06:26:06;20.10;;;19.00;;
10452;SDS011;5274;51.992;8.518;2023-09-07T06:28:32;20.42;;;18.95;;
10452;SDS011;5274;51.992;8.518;2023-09-07T06:30:58;18.13;;;17.10;;
10452;SDS011;5274;51.992;8.518;2023-09-07T06:33:24;20.58;;;19.38;;
10452;SDS011;5274;51.992;8.518;2023-09-07T06:35:50;19.88;;;18.65;;
10452;SDS011;5274;51.992;8.518;2023-09-07T06:38:16;20.15;;;18.95;;
10452;SDS011;5274;51.992;8.518;2023-09-07T06:40:47;20.88;;;19.60;;
10452;SDS011;5274;51.992;8.518;2023-09-07T06:43:13;21.45;;;19.98;;
10452;SDS011;5274;51.992;8.518;2023-09-07T06:45:39;22.50;;;20.80;;
10452;SDS011;5274;51.992;8.518;2023-09-07T06:48:05;22.38;;;20.95;;
10452;SDS011;5274;51.992;8.518;2023-09-07T06:50:31;19.08;;;17.98;;
10452;SDS011;5274;51.992;8.518;2023-09-07T06:52:57;21.75;;;20.25;;
10452;SDS011;5274;51.992;8.518;2023-09-07T06:55:23;22.33;;;20.80;;
10452;SDS011;5274;51.992;8.518;2023-09-07T06:57:49;20.25;;;19.05;;
10452;SDS011;5274;51.992;8.518;2023-09-07T07:00:15;20.05;;;18.80;;
10452;SDS011;5274;51.992;8.518;2023-09-07T07:02:41;21.25;;;19.60;;
10452;SDS011;5274;51.992;8.518;2023-09-07T07:05:07;21.42;;;19.33;;
10452;SDS011;5274;51.992;8.518;2023-09-07T07:07:33;18.63;;;17.23;;
10452;SDS011;5274;51.992;8.518;2023-09-07T07:09:59;23.52;;;21.85;;
10452;SDS011;5274;51.992;8.518;2023-09-07T07:12:25;24.42;;;23.02;;
10452;SDS011;5274;51.992;8.518;2023-09-07T07:14:51;22.58;;;21.08;;
10452;SDS011;5274;51.992;8.518;2023-09-07T07:17:17;21.13;;;19.77;;
10452;SDS011;5274;51.992;8.518;2023-09-07T07:19:43;21.05;;;19.63;;
10452;SDS011;5274;51.992;8.518;2023-09-07T07:22:09;21.90;;;20.27;;
10452;SDS011;5274;51.992;8.518;2023-09-07T07:24:35;22.30;;;20.73;;
10452;SDS011;5274;51.992;8.518;2023-09-07T07:27:01;46.00;;;43.03;;
10452;SDS011;5274;51.992;8.518;2023-09-07T07:29:28;46.15;;;43.25;;
10452;SDS011;5274;51.992;8.518;2023-09-07T07:31:54;48.03;;;45.10;;
10452;SDS011;5274;51.992;8.518;2023-09-07T07:34:20;50.72;;;47.22;;
10452;SDS011;5274;51.992;8.518;2023-09-07T07:36:46;44.75;;;42.00;;
10452;SDS011;5274;51.992;8.518;2023-09-07T07:39:12;46.85;;;43.53;;
10452;SDS011;5274;51.992;8.518;2023-09-07T07:41:38;44.05;;;40.95;;
10452;SDS011;5274;51.992;8.518;2023-09-07T07:44:04;47.25;;;44.25;;
10452;SDS011;5274;51.992;8.518;2023-09-07T07:46:30;47.03;;;44.05;;
10452;SDS011;5274;51.992;8.518;2023-09-07T07:48:56;47.67;;;44.63;;
10452;SDS011;5274;51.992;8.518;2023-09-07T07:51:22;47.85;;;44.83;;
10452;SDS011;5274;51.992;8.518;2023-09-07T07:53:48;44.25;;;41.65;;
10452;SDS011;5274;51.992;8.518;2023-09-07T07:56:14;46.58;;;43.67;;
10452;SDS011;5274;51.992;8.518;2023-09-07T07:58:41;44.60;;;41.90;;
10452;SDS011;5274;51.992;8.518;2023-09-07T08:01:14;42.47;;;39.78;;
10452;SDS011;5274;51.992;8.518;2023-09-07T08:03:40;19.42;;;18.13;;
10452;SDS011;5274;51.992;8.518;2023-09-07T08:06:06;19.85;;;18.55;;
10452;SDS011;5274;51.992;8.518;2023-09-07T08:08:32;18.30;;;16.92;;
10452;SDS011;5274;51.992;8.518;2023-09-07T08:10:58;17.70;;;16.15;;
10452;SDS011;5274;51.992;8.518;2023-09-07T08:13:25;22.15;;;20.75;;
10452;SDS011;5274;51.992;8.518;2023-09-07T08:15:51;20.23;;;18.98;;
10452;SDS011;5274;51.992;8.518;2023-09-07T08:18:17;22.85;;;21.45;;
10452;SDS011;5274;51.992;8.518;2023-09-07T08:20:42;61.70;;;57.20;;
10452;SDS011;5274;51.992;8.518;2023-09-07T08:23:08;61.05;;;56.97;;
10452;SDS011;5274;51.992;8.518;2023-09-07T08:25:36;61.85;;;57.42;;
10452;SDS011;5274;51.992;8.518;2023-09-07T08:28:04;61.45;;;57.45;;
10452;SDS011;5274;51.992;8.518;2023-09-07T08:30:30;56.20;;;52.40;;
10452;SDS011;5274;51.992;8.518;2023-09-07T08:32:56;60.40;;;56.33;;
10452;SDS011;5274;51.992;8.518;2023-09-07T08:35:22;59.85;;;55.28;;
10452;SDS011;5274;51.992;8.518;2023-09-07T08:37:53;56.08;;;52.42;;
10452;SDS011;5274;51.992;8.518;2023-09-07T08:40:20;59.70;;;55.30;;
10452;SDS011;5274;51.992;8.518;2023-09-07T08:42:46;59.90;;;55.35;;
10452;SDS011;5274;51.992;8.518;2023-09-07T08:45:13;60.53;;;56.42;;
10452;SDS011;5274;51.992;8.518;2023-09-07T08:47:40;60.13;;;55.90;;
10452;SDS011;5274;51.992;8.518;2023-09-07T08:50:07;60.83;;;56.60;;
10452;SDS011;5274;51.992;8.518;2023-09-07T08:52:33;60.90;;;56.53;;
10452;SDS011;5274;51.992;8.518;2023-09-07T08:54:59;55.67;;;51.60;;
10452;SDS011;5274;51.992;8.518;2023-09-07T08:57:29;56.58;;;52.88;;
10452;SDS011;5274;51.992;8.518;2023-09-07T08:59:55;54.45;;;50.42;;
10452;SDS011;5274;51.992;8.518;2023-09-07T09:02:21;58.65;;;54.53;;
10452;SDS011;5274;51.992;8.518;2023-09-07T09:04:47;56.65;;;52.22;;
10452;SDS011;5274;51.992;8.518;2023-09-07T09:07:13;59.78;;;55.38;;
10452;SDS011;5274;51.992;8.518;2023-09-07T09:09:39;58.45;;;54.55;;
10452;SDS011;5274;51.992;8.518;2023-09-07T09:12:06;59.83;;;55.45;;
10452;SDS011;5274;51.992;8.518;2023-09-07T09:14:32;59.70;;;55.80;;
10452;SDS011;5274;51.992;8.518;2023-09-07T09:16:58;61.47;;;57.20;;
10452;SDS011;5274;51.992;8.518;2023-09-07T09:19:31;61.70;;;57.15;;
10452;SDS011;5274;51.992;8.518;2023-09-07T09:21:57;58.58;;;54.67;;
10452;SDS011;5274;51.992;8.518;2023-09-07T09:24:23;62.65;;;58.45;;
10452;SDS011;5274;51.992;8.518;2023-09-07T09:26:49;61.85;;;57.70;;
10452;SDS011;5274;51.992;8.518;2023-09-07T09:29:16;61.65;;;57.55;;
10452;SDS011;5274;51.992;8.518;2023-09-07T09:31:43;61.90;;;57.15;;
10452;SDS011;5274;51.992;8.518;2023-09-07T09:34:09;60.38;;;56.47;;
10452;SDS011;5274;51.992;8.518;2023-09-07T09:36:36;60.78;;;56.50;;
10452;SDS011;5274;51.992;8.518;2023-09-07T09:39:02;58.78;;;54.60;;
10452;SDS011;5274;51.992;8.518;2023-09-07T09:41:33;57.50;;;53.35;;
10452;SDS011;5274;51.992;8.518;2023-09-07T09:43:59;59.60;;;55.58;;
10452;SDS011;5274;51.992;8.518;2023-09-07T09:46:25;59.13;;;55.33;;
10452;SDS011;5274;51.992;8.518;2023-09-07T09:48:52;60.25;;;55.92;;
10452;SDS011;5274;51.992;8.518;2023-09-07T09:51:18;59.30;;;55.60;;
10452;SDS011;5274;51.992;8.518;2023-09-07T09:53:44;61.13;;;56.92;;
10452;SDS011;5274;51.992;8.518;2023-09-07T09:56:10;60.53;;;56.53;;
10452;SDS011;5274;51.992;8.518;2023-09-07T09:58:36;61.38;;;57.33;;
10452;SDS011;5274;51.992;8.518;2023-09-07T10:01:02;60.85;;;56.63;;
10452;SDS011;5274;51.992;8.518;2023-09-07T10:03:37;60.58;;;56.58;;
10452;SDS011;5274;51.992;8.518;2023-09-07T10:06:11;54.05;;;50.58;;
10452;SDS011;5274;51.992;8.518;2023-09-07T10:08:37;52.70;;;49.50;;
10452;SDS011;5274;51.992;8.518;2023-09-07T10:11:09;54.35;;;51.15;;
10452;SDS011;5274;51.992;8.518;2023-09-07T10:13:35;56.97;;;52.92;;
10452;SDS011;5274;51.992;8.518;2023-09-07T10:16:04;56.75;;;52.92;;
10452;SDS011;5274;51.992;8.518;2023-09-07T10:18:37;53.58;;;50.28;;
10452;SDS011;5274;51.992;8.518;2023-09-07T10:21:03;56.05;;;52.42;;
10452;SDS011;5274;51.992;8.518;2023-09-07T10:23:36;57.42;;;53.63;;
10452;SDS011;5274;51.992;8.518;2023-09-07T10:26:02;58.35;;;54.63;;
10452;SDS011;5274;51.992;8.518;2023-09-07T10:28:32;53.75;;;50.45;;
10452;SDS011;5274;51.992;8.518;2023-09-07T10:30:58;52.75;;;49.17;;
10452;SDS011;5274;51.992;8.518;2023-09-07T10:33:24;52.17;;;48.60;;
10452;SDS011;5274;51.992;8.518;2023-09-07T10:35:51;51.78;;;48.58;;
10452;SDS011;5274;51.992;8.518;2023-09-07T10:38:17;52.08;;;48.85;;
10452;SDS011;5274;51.992;8.518;2023-09-07T10:40:47;53.17;;;49.67;;
10452;SDS011;5274;51.992;8.518;2023-09-07T10:43:13;52.95;;;49.55;;
10452;SDS011;5274;51.992;8.518;2023-09-07T10:45:39;55.50;;;52.13;;
10452;SDS011;5274;51.992;8.518;2023-09-07T10:48:05;53.85;;;50.65;;
10452;SDS011;5274;51.992;8.518;2023-09-07T10:50:41;54.80;;;51.30;;
10452;SDS011;5274;51.992;8.518;2023-09-07T10:53:07;53.90;;;49.78;;
10452;SDS011;5274;51.992;8.518;2023-09-07T10:55:39;50.08;;;47.10;;
10452;SDS011;5274;51.992;8.518;2023-09-07T10:58:05;51.67;;;48.38;;
10452;SDS011;5274;51.992;8.518;2023-09-07T11:00:31;49.47;;;46.00;;
10452;SDS011;5274;51.992;8.518;2023-09-07T11:02:58;49.58;;;46.58;;
10452;SDS011;5274;51.992;8.518;2023-09-07T11:05:24;50.38;;;47.28;;
10452;SDS011;5274;51.992;8.518;2023-09-07T11:07:50;51.75;;;48.55;;
10452;SDS011;5274;51.992;8.518;2023-09-07T11:10:16;50.80;;;47.83;;
10452;SDS011;5274;51.992;8.518;2023-09-07T11:12:42;50.05;;;46.75;;
10452;SDS011;5274;51.992;8.518;2023-09-07T11:15:08;50.65;;;47.45;;
10452;SDS011;5274;51.992;8.518;2023-09-07T11:17:36;49.95;;;46.88;;
10452;SDS011;5274;51.992;8.518;2023-09-07T11:20:03;50.35;;;47.08;;
10452;SDS011;5274;51.992;8.518;2023-09-07T11:22:33;52.67;;;49.42;;
10452;SDS011;5274;51.992;8.518;2023-09-07T11:25:00;52.65;;;49.15;;
10452;SDS011;5274;51.992;8.518;2023-09-07T11:27:28;54.17;;;50.78;;
10452;SDS011;5274;51.992;8.518;2023-09-07T11:29:55;53.53;;;49.78;;
10452;SDS011;5274;51.992;8.518;2023-09-07T11:32:21;52.28;;;49.03;;
10452;SDS011;5274;51.992;8.518;2023-09-07T11:34:48;50.63;;;46.92;;
10452;SDS011;5274;51.992;8.518;2023-09-07T11:37:23;50.45;;;47.20;;
10452;SDS011;5274;51.992;8.518;2023-09-07T11:39:49;50.50;;;47.30;;
10452;SDS011;5274;51.992;8.518;2023-09-07T11:42:15;50.90;;;47.70;;
10452;SDS011;5274;51.992;8.518;2023-09-07T11:44:41;51.25;;;48.05;;
10452;SDS011;5274;51.992;8.518;2023-09-07T11:47:07;52.08;;;48.28;;
10452;SDS011;5274;51.992;8.518;2023-09-07T11:49:33;53.00;;;49.42;;
10452;SDS011;5274;51.992;8.518;2023-09-07T11:51:59;50.30;;;47.20;;
10452;SDS011;5274;51.992;8.518;2023-09-07T11:54:25;51.45;;;48.05;;
10452;SDS011;5274;51.992;8.518;2023-09-07T11:56:52;50.28;;;47.17;;
10452;SDS011;5274;51.992;8.518;2023-09-07T11:59:18;49.83;;;46.72;;
10452;SDS011;5274;51.992;8.518;2023-09-07T12:01:44;49.20;;;45.72;;
10452;SDS011;5274;51.992;8.518;2023-09-07T12:04:10;47.50;;;44.25;;
10452;SDS011;5274;51.992;8.518;2023-09-07T12:06:36;47.78;;;44.78;;
10452;SDS011;5274;51.992;8.518;2023-09-07T12:09:03;51.45;;;48.15;;
10452;SDS011;5274;51.992;8.518;2023-09-07T12:11:29;49.65;;;46.45;;
10452;SDS011;5274;51.992;8.518;2023-09-07T12:13:55;52.45;;;48.90;;
10452;SDS011;5274;51.992;8.518;2023-09-07T12:16:22;49.80;;;46.40;;
10452;SDS011;5274;51.992;8.518;2023-09-07T12:18:48;46.63;;;43.53;;
10452;SDS011;5274;51.992;8.518;2023-09-07T12:21:14;51.00;;;47.70;;
10452;SDS011;5274;51.992;8.518;2023-09-07T12:23:39;50.13;;;46.90;;
10452;SDS011;5274;51.992;8.518;2023-09-07T12:26:05;57.70;;;53.90;;
10452;SDS011;5274;51.992;8.518;2023-09-07T12:28:32;55.83;;;51.53;;
10452;SDS011;5274;51.992;8.518;2023-09-07T12:30:58;54.00;;;50.22;;
10452;SDS011;5274;51.992;8.518;2023-09-07T12:33:24;51.40;;;48.05;;
10452;SDS011;5274;51.992;8.518;2023-09-07T12:35:50;49.75;;;46.55;;
10452;SDS011;5274;51.992;8.518;2023-09-07T12:38:16;53.20;;;49.80;;
10452;SDS011;5274;51.992;8.518;2023-09-07T12:40:47;53.38;;;50.15;;
10452;SDS011;5274;51.992;8.518;2023-09-07T12:43:13;53.92;;;50.60;;
10452;SDS011;5274;51.992;8.518;2023-09-07T12:45:39;57.42;;;53.83;;
10452;SDS011;5274;51.992;8.518;2023-09-07T12:48:05;57.25;;;53.65;;
10452;SDS011;5274;51.992;8.518;2023-09-07T12:50:31;55.22;;;51.83;;
10452;SDS011;5274;51.992;8.518;2023-09-07T12:52:57;56.08;;;52.67;;
10452;SDS011;5274;51.992;8.518;2023-09-07T12:55:23;55.80;;;52.38;;
10452;SDS011;5274;51.992;8.518;2023-09-07T12:57:49;57.88;;;54.30;;
10452;SDS011;5274;51.992;8.518;2023-09-07T13:00:15;57.15;;;53.38;;
10452;SDS011;5274;51.992;8.518;2023-09-07T13:02:41;56.47;;;52.72;;
10452;SDS011;5274;51.992;8.518;2023-09-07T13:05:07;53.13;;;49.90;;
10452;SDS011;5274;51.992;8.518;2023-09-07T13:07:33;51.55;;;48.08;;
10452;SDS011;5274;51.992;8.518;2023-09-07T13:10:00;51.88;;;48.47;;
10452;SDS011;5274;51.992;8.518;2023-09-07T13:12:29;54.08;;;50.80;;
10452;SDS011;5274;51.992;8.518;2023-09-07T13:14:55;55.88;;;52.20;;
10452;SDS011;5274;51.992;8.518;2023-09-07T13:17:20;56.40;;;52.60;;
10452;SDS011;5274;51.992;8.518;2023-09-07T13:19:46;55.17;;;51.75;;
10452;SDS011;5274;51.992;8.518;2023-09-07T13:22:13;54.42;;;51.00;;
10452;SDS011;5274;51.992;8.518;2023-09-07T13:24:39;56.45;;;52.58;;
10452;SDS011;5274;51.992;8.518;2023-09-07T13:27:05;54.20;;;50.67;;
10452;SDS011;5274;51.992;8.518;2023-09-07T13:29:32;56.40;;;52.78;;
10452;SDS011;5274;51.992;8.518;2023-09-07T13:31:58;51.83;;;48.55;;
10452;SDS011;5274;51.992;8.518;2023-09-07T13:34:24;52.38;;;49.17;;
10452;SDS011;5274;51.992;8.518;2023-09-07T13:36:50;53.30;;;50.08;;
10452;SDS011;5274;51.992;8.518;2023-09-07T13:39:16;48.20;;;45.30;;
10452;SDS011;5274;51.992;8.518;2023-09-07T13:41:42;49.42;;;46.72;;
10452;SDS011;5274;51.992;8.518;2023-09-07T13:44:08;49.63;;;46.83;;
10452;SDS011;5274;51.992;8.518;2023-09-07T13:46:34;53.60;;;50.42;;
10452;SDS011;5274;51.992;8.518;2023-09-07T13:49:00;54.40;;;51.03;;
10452;SDS011;5274;51.992;8.518;2023-09-07T13:51:26;54.72;;;51.30;;
10452;SDS011;5274;51.992;8.518;2023-09-07T13:53:52;56.47;;;52.88;;
10452;SDS011;5274;51.992;8.518;2023-09-07T13:56:18;56.45;;;52.85;;
10452;SDS011;5274;51.992;8.518;2023-09-07T13:58:44;56.33;;;52.05;;
10452;SDS011;5274;51.992;8.518;2023-09-07T14:01:11;54.15;;;50.63;;
10452;SDS011;5274;51.992;8.518;2023-09-07T14:03:37;58.38;;;54.20;;
10452;SDS011;5274;51.992;8.518;2023-09-07T14:06:03;58.20;;;54.50;;
10452;SDS011;5274;51.992;8.518;2023-09-07T14:08:29;56.05;;;52.42;;
10452;SDS011;5274;51.992;8.518;2023-09-07T14:10:55;54.20;;;50.83;;
10452;SDS011;5274;51.992;8.518;2023-09-07T14:13:21;55.22;;;51.83;;
10452;SDS011;5274;51.992;8.518;2023-09-07T14:15:47;52.10;;;48.90;;
10452;SDS011;5274;51.992;8.518;2023-09-07T14:18:13;54.85;;;51.03;;
10452;SDS011;5274;51.992;8.518;2023-09-07T14:20:39;54.90;;;51.15;;
10452;SDS011;5274;51.992;8.518;2023-09-07T14:23:05;53.38;;;49.80;;
10452;SDS011;5274;51.992;8.518;2023-09-07T14:25:31;54.15;;;50.75;;
10452;SDS011;5274;51.992;8.518;2023-09-07T14:27:57;54.88;;;51.47;;
10452;SDS011;5274;51.992;8.518;2023-09-07T14:30:23;55.13;;;51.30;;
10452;SDS011;5274;51.992;8.518;2023-09-07T14:32:49;55.25;;;51.85;;
10452;SDS011;5274;51.992;8.518;2023-09-07T14:35:15;55.70;;;52.22;;
10452;SDS011;5274;51.992;8.518;2023-09-07T14:37:41;55.00;;;51.40;;